sensor_id;sensor_type;location;lat;lon;timestamp;pressure;altitude;pressure_sealevel;temperature;humidity
20003;BME280;10162;41.600;23.806;2023-09-12T00:01:21;95359.34;;;12.54;85.07
20003;BME280;10162;41.600;23.806;2023-09-12T00:03:46;95348.81;;;12.28;86.09
20003;BME280;10162;41.600;23.806;2023-09-12T00:06:13;95361.63;;;11.83;88.94
20003;BME280;10162;41.600;23.806;2023-09-12T00:09:16;95353.47;;;12.39;86.25
20003;BME280;10162;41.600;23.806;2023-09-12T00:11:43;95342.94;;;11.99;88.11
20003;BME280;10162;41.600;23.806;2023-09-12T00:14:09;95348.38;;;12.05;88.11
20003;BME280;10162;41.600;23.806;2023-09-12T00:16:35;95355.63;;;12.09;87.32
20003;BME280;10162;41.600;23.806;2023-09-12T00:22:20;95348.19;;;12.19;86.47
20003;BME280;10162;41.600;23.806;2023-09-12T00:24:46;95355.50;;;12.43;85.06
20003;BME280;10162;41.600;23.806;2023-09-12T00:27:22;95354.97;;;11.87;89.15
20003;BME280;10162;41.600;23.806;2023-09-12T00:29:59;95359.84;;;12.04;89.29
20003;BME280;10162;41.600;23.806;2023-09-12T00:32:25;95356.66;;;12.15;87.62
20003;BME280;10162;41.600;23.806;2023-09-12T00:34:51;95363.84;;;11.86;88.31
20003;BME280;10162;41.600;23.806;2023-09-12T00:37:18;95355.56;;;11.83;88.94
20003;BME280;10162;41.600;23.806;2023-09-12T00:40:16;95370.34;;;11.56;90.44
20003;BME280;10162;41.600;23.806;2023-09-12T00:42:42;95360.03;;;11.89;89.45
20003;BME280;10162;41.600;23.806;2023-09-12T00:45:08;95365.91;;;11.56;90.95
20003;BME280;10162;41.600;23.806;2023-09-12T00:47:38;95367.78;;;11.69;91.86
20003;BME280;10162;41.600;23.806;2023-09-12T00:53:59;95371.72;;;11.93;89.44
20003;BME280;10162;41.600;23.806;2023-09-12T00:56:27;95340.41;;;11.31;93.42
20003;BME280;10162;41.600;23.806;2023-09-12T01:01:53;95367.25;;;11.80;91.25
20003;BME280;10162;41.600;23.806;2023-09-12T01:04:19;95348.69;;;10.72;95.50
20003;BME280;10162;41.600;23.806;2023-09-12T01:06:45;95369.34;;;11.16;94.61
20003;BME280;10162;41.600;23.806;2023-09-12T01:09:16;95379.81;;;11.23;94.24
20003;BME280;10162;41.600;23.806;2023-09-12T01:11:43;95370.50;;;11.13;95.85
20003;BME280;10162;41.600;23.806;2023-09-12T01:14:09;95353.09;;;10.99;96.13
20003;BME280;10162;41.600;23.806;2023-09-12T01:16:35;95376.63;;;10.99;97.11
20003;BME280;10162;41.600;23.806;2023-09-12T01:22:21;95372.94;;;11.49;94.79
20003;BME280;10162;41.600;23.806;2023-09-12T01:25:07;95380.94;;;11.07;96.10
20003;BME280;10162;41.600;23.806;2023-09-12T01:27:42;95378.56;;;10.84;99.78
20003;BME280;10162;41.600;23.806;2023-09-12T01:30:10;95382.38;;;10.82;100.00
20003;BME280;10162;41.600;23.806;2023-09-12T01:33:18;95389.66;;;10.86;99.82
20003;BME280;10162;41.600;23.806;2023-09-12T01:36:17;95381.00;;;10.86;99.47
20003;BME280;10162;41.600;23.806;2023-09-12T01:39:08;95361.34;;;10.68;99.63
20003;BME280;10162;41.600;23.806;2023-09-12T01:41:45;95384.91;;;11.31;96.77
20003;BME280;10162;41.600;23.806;2023-09-12T01:44:17;95382.44;;;10.67;100.00
20003;BME280;10162;41.600;23.806;2023-09-12T01:46:51;95402.75;;;10.44;100.00
20003;BME280;10162;41.600;23.806;2023-09-12T01:49:42;95389.25;;;10.89;100.00
20003;BME280;10162;41.600;23.806;2023-09-12T01:52:30;95376.41;;;10.94;98.73
20003;BME280;10162;41.600;23.806;2023-09-12T01:55:11;95380.28;;;10.70;100.00
20003;BME280;10162;41.600;23.806;2023-09-12T01:57:56;95393.28;;;10.64;100.00
20003;BME280;10162;41.600;23.806;2023-09-12T02:00:53;95374.13;;;11.12;96.71
20003;BME280;10162;41.600;23.806;2023-09-12T02:03:28;95391.31;;;11.22;96.73
20003;BME280;10162;41.600;23.806;2023-09-12T02:06:08;95377.50;;;10.78;98.34
20003;BME280;10162;41.600;23.806;2023-09-12T02:09:12;95401.50;;;11.16;96.74
20003;BME280;10162;41.600;23.806;2023-09-12T02:12:06;95380.06;;;11.28;96.19
20003;BME280;10162;41.600;23.806;2023-09-12T02:14:41;95391.28;;;10.94;97.99
20003;BME280;10162;41.600;23.806;2023-09-12T02:17:10;95399.19;;;10.51;100.00
20003;BME280;10162;41.600;23.806;2023-09-12T02:19:40;95386.13;;;10.51;100.00
20003;BME280;10162;41.600;23.806;2023-09-12T02:22:13;95383.59;;;10.86;98.93
20003;BME280;10162;41.600;23.806;2023-09-12T02:24:38;95397.06;;;11.10;96.94
20003;BME280;10162;41.600;23.806;2023-09-12T02:27:08;95369.75;;;10.43;100.00
20003;BME280;10162;41.600;23.806;2023-09-12T02:30:06;95402.53;;;10.66;100.00
20003;BME280;10162;41.600;23.806;2023-09-12T02:33:31;95383.13;;;11.03;97.99
20003;BME280;10162;41.600;23.806;2023-09-12T02:36:09;95399.41;;;10.77;98.19
20003;BME280;10162;41.600;23.806;2023-09-12T02:38:45;95380.78;;;10.59;98.73
20003;BME280;10162;41.600;23.806;2023-09-12T02:41:19;95403.22;;;10.54;100.00
20003;BME280;10162;41.600;23.806;2023-09-12T02:44:06;95402.50;;;11.09;98.29
20003;BME280;10162;41.600;23.806;2023-09-12T02:46:36;95408.28;;;10.34;100.00
20003;BME280;10162;41.600;23.806;2023-09-12T02:49:11;95398.69;;;10.20;100.00
20003;BME280;10162;41.600;23.806;2023-09-12T02:51:40;95406.41;;;10.28;100.00
20003;BME280;10162;41.600;23.806;2023-09-12T02:54:07;95402.06;;;10.35;100.00
20003;BME280;10162;41.600;23.806;2023-09-12T02:56:33;95401.50;;;10.18;100.00
20003;BME280;10162;41.600;23.806;2023-09-12T02:59:14;95415.88;;;10.50;100.00
20003;BME280;10162;41.600;23.806;2023-09-12T03:01:41;95401.38;;;9.90;100.00
20003;BME280;10162;41.600;23.806;2023-09-12T03:04:07;95427.22;;;10.57;100.00
20003;BME280;10162;41.600;23.806;2023-09-12T03:06:35;95421.72;;;9.95;100.00
20003;BME280;10162;41.600;23.806;2023-09-12T03:09:02;95400.88;;;10.02;100.00
20003;BME280;10162;41.600;23.806;2023-09-12T03:11:30;95410.09;;;10.33;100.00
20003;BME280;10162;41.600;23.806;2023-09-12T03:14:03;95395.72;;;10.23;100.00
20003;BME280;10162;41.600;23.806;2023-09-12T03:16:28;95403.28;;;10.03;100.00
20003;BME280;10162;41.600;23.806;2023-09-12T03:22:12;95412.56;;;10.84;100.00
20003;BME280;10162;41.600;23.806;2023-09-12T03:25:46;95412.44;;;10.14;100.00
20003;BME280;10162;41.600;23.806;2023-09-12T03:28:41;95413.88;;;10.31;100.00
20003;BME280;10162;41.600;23.806;2023-09-12T03:31:20;95401.00;;;10.15;100.00
20003;BME280;10162;41.600;23.806;2023-09-12T03:34:03;95414.16;;;10.36;100.00
20003;BME280;10162;41.600;23.806;2023-09-12T03:37:01;95422.56;;;10.17;100.00
20003;BME280;10162;41.600;23.806;2023-09-12T03:42:40;95419.91;;;9.81;100.00
20003;BME280;10162;41.600;23.806;2023-09-12T03:45:06;95416.91;;;9.48;100.00
20003;BME280;10162;41.600;23.806;2023-09-12T03:47:33;95415.81;;;9.72;100.00
20003;BME280;10162;41.600;23.806;2023-09-12T03:53:07;95430.94;;;9.62;100.00
20003;BME280;10162;41.600;23.806;2023-09-12T03:55:33;95426.28;;;10.08;100.00
20003;BME280;10162;41.600;23.806;2023-09-12T03:58:00;95422.94;;;9.34;100.00
20003;BME280;10162;41.600;23.806;2023-09-12T04:03:37;95410.28;;;9.96;100.00
20003;BME280;10162;41.600;23.806;2023-09-12T04:06:03;95418.84;;;9.75;100.00
20003;BME280;10162;41.600;23.806;2023-09-12T04:08:30;95422.47;;;9.45;100.00
20003;BME280;10162;41.600;23.806;2023-09-12T04:10:57;95430.22;;;9.68;100.00
20003;BME280;10162;41.600;23.806;2023-09-12T04:13:24;95431.28;;;10.09;100.00
20003;BME280;10162;41.600;23.806;2023-09-12T04:15:50;95432.13;;;9.44;100.00
20003;BME280;10162;41.600;23.806;2023-09-12T04:18:16;95430.03;;;9.54;100.00
20003;BME280;10162;41.600;23.806;2023-09-12T04:21:02;95439.63;;;9.69;100.00
20003;BME280;10162;41.600;23.806;2023-09-12T04:23:28;95450.25;;;9.82;100.00
20003;BME280;10162;41.600;23.806;2023-09-12T04:25:54;95436.78;;;10.29;100.00
20003;BME280;10162;41.600;23.806;2023-09-12T04:28:31;95441.44;;;9.83;100.00
20003;BME280;10162;41.600;23.806;2023-09-12T04:31:04;95433.16;;;9.65;100.00
20003;BME280;10162;41.600;23.806;2023-09-12T04:33:29;95420.91;;;9.80;100.00
20003;BME280;10162;41.600;23.806;2023-09-12T04:36:00;95431.69;;;9.91;100.00
20003;BME280;10162;41.600;23.806;2023-09-12T04:38:35;95432.72;;;9.90;100.00
20003;BME280;10162;41.600;23.806;2023-09-12T04:41:08;95445.97;;;10.10;100.00
20003;BME280;10162;41.600;23.806;2023-09-12T04:43:45;95435.34;;;10.12;100.00
20003;BME280;10162;41.600;23.806;2023-09-12T04:46:17;95447.66;;;10.32;100.00
20003;BME280;10162;41.600;23.806;2023-09-12T04:49:06;95452.53;;;10.35;100.00
20003;BME280;10162;41.600;23.806;2023-09-12T04:51:39;95440.78;;;10.67;100.00
20003;BME280;10162;41.600;23.806;2023-09-12T04:54:14;95462.75;;;10.73;100.00
20003;BME280;10162;41.600;23.806;2023-09-12T04:57:10;95433.03;;;11.02;100.00
20003;BME280;10162;41.600;23.806;2023-09-12T04:59:37;95457.81;;;11.68;100.00
20003;BME280;10162;41.600;23.806;2023-09-12T05:02:03;95442.00;;;11.48;100.00
20003;BME280;10162;41.600;23.806;2023-09-12T05:04:29;95453.34;;;11.90;98.00
20003;BME280;10162;41.600;23.806;2023-09-12T05:06:55;95452.97;;;11.99;96.42
20003;BME280;10162;41.600;23.806;2023-09-12T05:09:52;95464.16;;;12.21;95.10
20003;BME280;10162;41.600;23.806;2023-09-12T05:12:19;95455.13;;;12.37;94.33
20003;BME280;10162;41.600;23.806;2023-09-12T05:14:45;95460.56;;;12.35;94.05
20003;BME280;10162;41.600;23.806;2023-09-12T05:17:11;95470.50;;;12.60;91.94
20003;BME280;10162;41.600;23.806;2023-09-12T05:19:41;95466.75;;;13.02;89.72
20003;BME280;10162;41.600;23.806;2023-09-12T05:22:07;95467.56;;;13.22;87.08
20003;BME280;10162;41.600;23.806;2023-09-12T05:24:32;95467.38;;;13.23;85.89
20003;BME280;10162;41.600;23.806;2023-09-12T05:26:58;95461.94;;;13.25;86.02
20003;BME280;10162;41.600;23.806;2023-09-12T05:29:43;95468.16;;;13.57;85.03
20003;BME280;10162;41.600;23.806;2023-09-12T05:32:09;95469.38;;;13.54;85.41
20003;BME280;10162;41.600;23.806;2023-09-12T05:34:34;95460.69;;;13.41;85.43
20003;BME280;10162;41.600;23.806;2023-09-12T05:37:00;95466.72;;;13.68;86.25
20003;BME280;10162;41.600;23.806;2023-09-12T05:42:31;95473.38;;;13.83;85.79
20003;BME280;10162;41.600;23.806;2023-09-12T05:44:58;95464.91;;;14.26;84.05
20003;BME280;10162;41.600;23.806;2023-09-12T05:47:23;95465.09;;;14.31;82.83
20003;BME280;10162;41.600;23.806;2023-09-12T05:52:58;95466.84;;;14.57;83.42
20003;BME280;10162;41.600;23.806;2023-09-12T05:55:24;95470.41;;;14.69;82.54
20003;BME280;10162;41.600;23.806;2023-09-12T05:57:51;95463.13;;;14.64;81.22
20003;BME280;10162;41.600;23.806;2023-09-12T06:00:54;95473.25;;;14.67;79.09
20003;BME280;10162;41.600;23.806;2023-09-12T06:03:21;95467.34;;;14.72;77.94
20003;BME280;10162;41.600;23.806;2023-09-12T06:05:46;95473.41;;;14.72;77.49
20003;BME280;10162;41.600;23.806;2023-09-12T06:08:12;95467.78;;;15.25;75.13
20003;BME280;10162;41.600;23.806;2023-09-12T06:13:43;95470.53;;;15.61;75.11
20003;BME280;10162;41.600;23.806;2023-09-12T06:16:08;95475.06;;;15.54;75.92
20003;BME280;10162;41.600;23.806;2023-09-12T06:18:54;95469.56;;;15.99;74.51
20003;BME280;10162;41.600;23.806;2023-09-12T06:21:21;95468.28;;;16.20;74.80
20003;BME280;10162;41.600;23.806;2023-09-12T06:24:08;95476.19;;;16.38;72.21
20003;BME280;10162;41.600;23.806;2023-09-12T06:26:34;95470.47;;;16.41;70.60
20003;BME280;10162;41.600;23.806;2023-09-12T06:29:03;95462.72;;;16.46;70.07
20003;BME280;10162;41.600;23.806;2023-09-12T06:31:29;95473.47;;;16.44;70.38
20003;BME280;10162;41.600;23.806;2023-09-12T06:33:54;95470.63;;;16.46;71.28
20003;BME280;10162;41.600;23.806;2023-09-12T06:36:20;95476.19;;;16.86;69.11
20003;BME280;10162;41.600;23.806;2023-09-12T06:38:48;95480.56;;;16.92;68.34
20003;BME280;10162;41.600;23.806;2023-09-12T06:41:14;95475.34;;;17.15;67.24
20003;BME280;10162;41.600;23.806;2023-09-12T06:43:39;95482.63;;;17.20;66.86
20003;BME280;10162;41.600;23.806;2023-09-12T06:46:06;95489.38;;;17.27;66.54
20003;BME280;10162;41.600;23.806;2023-09-12T06:48:45;95491.16;;;17.04;66.93
20003;BME280;10162;41.600;23.806;2023-09-12T06:51:12;95482.88;;;17.42;65.56
20003;BME280;10162;41.600;23.806;2023-09-12T06:53:38;95486.13;;;17.79;63.51
20003;BME280;10162;41.600;23.806;2023-09-12T06:56:05;95484.28;;;18.02;63.44
20003;BME280;10162;41.600;23.806;2023-09-12T06:58:32;95483.69;;;18.00;63.20
20003;BME280;10162;41.600;23.806;2023-09-12T07:01:06;95482.41;;;18.26;61.81
20003;BME280;10162;41.600;23.806;2023-09-12T07:03:34;95478.13;;;18.25;61.84
20003;BME280;10162;41.600;23.806;2023-09-12T07:06:00;95476.84;;;18.39;60.93
20003;BME280;10162;41.600;23.806;2023-09-12T07:08:41;95476.06;;;18.39;61.91
20003;BME280;10162;41.600;23.806;2023-09-12T07:11:07;95478.09;;;18.48;59.91
20003;BME280;10162;41.600;23.806;2023-09-12T07:13:33;95484.28;;;18.94;59.26
20003;BME280;10162;41.600;23.806;2023-09-12T07:15:59;95478.59;;;19.02;57.36
20003;BME280;10162;41.600;23.806;2023-09-12T07:18:25;95484.63;;;19.14;55.99
20003;BME280;10162;41.600;23.806;2023-09-12T07:21:02;95488.44;;;18.90;57.31
20003;BME280;10162;41.600;23.806;2023-09-12T07:23:29;95478.84;;;19.17;56.00
20003;BME280;10162;41.600;23.806;2023-09-12T07:25:56;95480.53;;;19.07;55.77
20003;BME280;10162;41.600;23.806;2023-09-12T07:28:26;95493.44;;;19.65;55.96
20003;BME280;10162;41.600;23.806;2023-09-12T07:30:53;95479.66;;;19.34;54.78
20003;BME280;10162;41.600;23.806;2023-09-12T07:33:19;95477.75;;;19.80;54.64
20003;BME280;10162;41.600;23.806;2023-09-12T07:35:46;95479.97;;;19.88;53.27
20003;BME280;10162;41.600;23.806;2023-09-12T07:38:13;95473.97;;;19.93;52.36
20003;BME280;10162;41.600;23.806;2023-09-12T07:43:50;95476.75;;;20.25;52.37
20003;BME280;10162;41.600;23.806;2023-09-12T07:46:15;95480.00;;;20.70;51.25
20003;BME280;10162;41.600;23.806;2023-09-12T07:49:04;95474.34;;;20.88;49.89
20003;BME280;10162;41.600;23.806;2023-09-12T07:51:30;95468.28;;;20.66;51.07
20003;BME280;10162;41.600;23.806;2023-09-12T07:53:56;95461.25;;;20.55;50.95
20003;BME280;10162;41.600;23.806;2023-09-12T07:56:22;95460.75;;;20.85;50.71
20003;BME280;10162;41.600;23.806;2023-09-12T07:58:48;95456.41;;;21.27;49.41
20003;BME280;10162;41.600;23.806;2023-09-12T08:01:15;95464.09;;;21.02;49.60
20003;BME280;10162;41.600;23.806;2023-09-12T08:03:42;95462.84;;;21.10;49.27
20003;BME280;10162;41.600;23.806;2023-09-12T08:06:09;95457.25;;;21.06;49.22
20003;BME280;10162;41.600;23.806;2023-09-12T08:08:35;95459.38;;;21.68;47.89
20003;BME280;10162;41.600;23.806;2023-09-12T08:11:01;95448.72;;;21.68;47.55
20003;BME280;10162;41.600;23.806;2023-09-12T08:13:28;95453.69;;;21.54;47.91
20003;BME280;10162;41.600;23.806;2023-09-12T08:15:56;95453.84;;;21.74;46.66
20003;BME280;10162;41.600;23.806;2023-09-12T08:18:22;95456.28;;;21.81;47.43
20003;BME280;10162;41.600;23.806;2023-09-12T08:20:48;95450.47;;;21.89;46.52
20003;BME280;10162;41.600;23.806;2023-09-12T08:23:14;95454.09;;;22.10;46.13
20003;BME280;10162;41.600;23.806;2023-09-12T08:25:40;95460.50;;;22.14;45.25
20003;BME280;10162;41.600;23.806;2023-09-12T08:28:05;95439.50;;;22.27;45.55
20003;BME280;10162;41.600;23.806;2023-09-12T08:30:32;95446.78;;;22.52;44.54
20003;BME280;10162;41.600;23.806;2023-09-12T08:32:58;95449.38;;;22.32;43.54
20003;BME280;10162;41.600;23.806;2023-09-12T08:35:24;95440.38;;;22.38;44.86
20003;BME280;10162;41.600;23.806;2023-09-12T08:37:52;95435.47;;;22.92;42.90
20003;BME280;10162;41.600;23.806;2023-09-12T08:40:18;95433.34;;;22.89;42.69
20003;BME280;10162;41.600;23.806;2023-09-12T08:42:44;95436.72;;;22.70;43.39
20003;BME280;10162;41.600;23.806;2023-09-12T08:45:17;95433.84;;;22.81;43.72
20003;BME280;10162;41.600;23.806;2023-09-12T08:47:52;95424.13;;;22.50;44.01
20003;BME280;10162;41.600;23.806;2023-09-12T08:50:20;95420.00;;;22.89;43.29
20003;BME280;10162;41.600;23.806;2023-09-12T08:52:47;95440.34;;;23.51;41.90
20003;BME280;10162;41.600;23.806;2023-09-12T08:55:13;95424.34;;;23.46;41.78
20003;BME280;10162;41.600;23.806;2023-09-12T08:57:41;95420.84;;;23.66;41.14
20003;BME280;10162;41.600;23.806;2023-09-12T09:00:08;95418.41;;;23.79;41.94
20003;BME280;10162;41.600;23.806;2023-09-12T09:02:39;95426.84;;;24.27;41.29
20003;BME280;10162;41.600;23.806;2023-09-12T09:05:07;95422.94;;;23.89;41.47
20003;BME280;10162;41.600;23.806;2023-09-12T09:07:39;95416.00;;;23.83;42.38
20003;BME280;10162;41.600;23.806;2023-09-12T09:10:09;95419.41;;;24.14;40.59
20003;BME280;10162;41.600;23.806;2023-09-12T09:12:39;95420.22;;;23.99;41.85
20003;BME280;10162;41.600;23.806;2023-09-12T09:15:25;95419.16;;;24.20;40.07
20003;BME280;10162;41.600;23.806;2023-09-12T09:17:53;95414.97;;;24.58;39.00
20003;BME280;10162;41.600;23.806;2023-09-12T09:23:04;95415.72;;;24.64;38.60
20003;BME280;10162;41.600;23.806;2023-09-12T09:25:51;95410.81;;;24.81;38.47
20003;BME280;10162;41.600;23.806;2023-09-12T09:28:20;95407.03;;;24.92;37.64
20003;BME280;10162;41.600;23.806;2023-09-12T09:30:51;95406.78;;;24.84;38.38
20003;BME280;10162;41.600;23.806;2023-09-12T09:33:17;95407.69;;;25.13;37.89
20003;BME280;10162;41.600;23.806;2023-09-12T09:35:45;95400.22;;;24.61;38.00
20003;BME280;10162;41.600;23.806;2023-09-12T09:38:13;95395.25;;;24.93;38.25
20003;BME280;10162;41.600;23.806;2023-09-12T09:40:45;95398.13;;;25.36;37.63
20003;BME280;10162;41.600;23.806;2023-09-12T09:43:11;95396.94;;;25.18;37.50
20003;BME280;10162;41.600;23.806;2023-09-12T09:45:45;95391.75;;;25.32;36.31
20003;BME280;10162;41.600;23.806;2023-09-12T09:48:21;95383.91;;;25.12;35.42
20003;BME280;10162;41.600;23.806;2023-09-12T09:50:48;95382.44;;;25.53;36.30
20003;BME280;10162;41.600;23.806;2023-09-12T09:53:26;95387.53;;;25.55;35.48
20003;BME280;10162;41.600;23.806;2023-09-12T09:55:52;95381.69;;;25.47;36.02
20003;BME280;10162;41.600;23.806;2023-09-12T09:58:18;95375.38;;;25.38;36.07
20003;BME280;10162;41.600;23.806;2023-09-12T10:00:49;95371.34;;;25.70;34.67
20003;BME280;10162;41.600;23.806;2023-09-12T10:03:18;95368.00;;;25.83;35.51
20003;BME280;10162;41.600;23.806;2023-09-12T10:05:46;95374.00;;;25.70;35.22
20003;BME280;10162;41.600;23.806;2023-09-12T10:08:15;95364.69;;;25.91;34.51
20003;BME280;10162;41.600;23.806;2023-09-12T10:10:44;95365.84;;;25.85;34.13
20003;BME280;10162;41.600;23.806;2023-09-12T10:13:10;95365.47;;;26.15;34.78
20003;BME280;10162;41.600;23.806;2023-09-12T10:15:38;95358.88;;;26.31;34.26
20003;BME280;10162;41.600;23.806;2023-09-12T10:18:08;95356.63;;;26.15;32.78
20003;BME280;10162;41.600;23.806;2023-09-12T10:20:55;95360.56;;;26.22;32.76
20003;BME280;10162;41.600;23.806;2023-09-12T10:23:43;95356.81;;;26.47;33.41
20003;BME280;10162;41.600;23.806;2023-09-12T10:26:14;95358.03;;;26.36;32.04
20003;BME280;10162;41.600;23.806;2023-09-12T10:28:41;95339.19;;;26.41;32.54
20003;BME280;10162;41.600;23.806;2023-09-12T10:31:12;95352.63;;;26.60;32.91
20003;BME280;10162;41.600;23.806;2023-09-12T10:33:39;95345.13;;;26.76;31.62
20003;BME280;10162;41.600;23.806;2023-09-12T10:36:06;95336.38;;;26.89;30.90
20003;BME280;10162;41.600;23.806;2023-09-12T10:38:40;95337.03;;;27.45;31.08
20003;BME280;10162;41.600;23.806;2023-09-12T10:41:11;95339.19;;;26.79;31.31
20003;BME280;10162;41.600;23.806;2023-09-12T10:43:41;95333.88;;;26.73;31.24
20003;BME280;10162;41.600;23.806;2023-09-12T10:46:08;95331.94;;;26.79;30.16
20003;BME280;10162;41.600;23.806;2023-09-12T10:48:37;95310.84;;;26.91;28.70
20003;BME280;10162;41.600;23.806;2023-09-12T10:51:06;95328.81;;;27.09;29.00
20003;BME280;10162;41.600;23.806;2023-09-12T10:53:33;95323.50;;;27.37;29.08
20003;BME280;10162;41.600;23.806;2023-09-12T10:59:18;95327.16;;;27.73;26.30
20003;BME280;10162;41.600;23.806;2023-09-12T11:01:45;95314.44;;;27.33;28.83
20003;BME280;10162;41.600;23.806;2023-09-12T11:06:50;95308.06;;;27.61;28.10
20003;BME280;10162;41.600;23.806;2023-09-12T11:09:24;95312.47;;;27.38;27.99
20003;BME280;10162;41.600;23.806;2023-09-12T11:12:02;95311.81;;;27.60;29.89
20003;BME280;10162;41.600;23.806;2023-09-12T11:14:29;95304.38;;;27.71;29.16
20003;BME280;10162;41.600;23.806;2023-09-12T11:19:45;95301.69;;;27.84;27.40
20003;BME280;10162;41.600;23.806;2023-09-12T11:22:30;95294.59;;;28.29;25.93
20003;BME280;10162;41.600;23.806;2023-09-12T11:24:57;95302.69;;;27.88;27.72
20003;BME280;10162;41.600;23.806;2023-09-12T11:30:24;95284.28;;;27.82;28.08
20003;BME280;10162;41.600;23.806;2023-09-12T11:32:57;95274.53;;;28.13;28.61
20003;BME280;10162;41.600;23.806;2023-09-12T11:35:24;95287.06;;;27.77;28.44
20003;BME280;10162;41.600;23.806;2023-09-12T11:37:54;95272.03;;;27.76;29.32
20003;BME280;10162;41.600;23.806;2023-09-12T11:40:26;95281.41;;;27.78;27.31
20003;BME280;10162;41.600;23.806;2023-09-12T11:43:06;95271.69;;;27.36;27.72
20003;BME280;10162;41.600;23.806;2023-09-12T11:45:33;95263.47;;;27.87;27.76
20003;BME280;10162;41.600;23.806;2023-09-12T11:48:02;95262.78;;;27.95;27.54
20003;BME280;10162;41.600;23.806;2023-09-12T11:50:35;95258.41;;;28.13;27.41
20003;BME280;10162;41.600;23.806;2023-09-12T11:53:13;95256.78;;;28.12;27.20
20003;BME280;10162;41.600;23.806;2023-09-12T11:55:47;95262.97;;;28.13;26.99
20003;BME280;10162;41.600;23.806;2023-09-12T11:58:17;95256.41;;;28.19;26.75
20003;BME280;10162;41.600;23.806;2023-09-12T12:00:45;95246.66;;;28.67;26.89
20003;BME280;10162;41.600;23.806;2023-09-12T12:03:16;95249.78;;;28.83;26.70
20003;BME280;10162;41.600;23.806;2023-09-12T12:05:42;95246.97;;;28.88;26.78
20003;BME280;10162;41.600;23.806;2023-09-12T12:08:10;95247.09;;;28.83;26.08
20003;BME280;10162;41.600;23.806;2023-09-12T12:10:36;95247.84;;;28.75;26.62
20003;BME280;10162;41.600;23.806;2023-09-12T12:13:05;95229.06;;;28.84;26.00
20003;BME280;10162;41.600;23.806;2023-09-12T12:15:30;95245.63;;;28.99;24.83
20003;BME280;10162;41.600;23.806;2023-09-12T12:17:56;95235.78;;;28.72;26.59
20003;BME280;10162;41.600;23.806;2023-09-12T12:20:23;95244.75;;;29.12;25.78
20003;BME280;10162;41.600;23.806;2023-09-12T12:22:49;95232.53;;;28.62;26.96
20003;BME280;10162;41.600;23.806;2023-09-12T12:25:18;95222.03;;;28.96;26.49
20003;BME280;10162;41.600;23.806;2023-09-12T12:27:44;95230.50;;;29.12;26.09
20003;BME280;10162;41.600;23.806;2023-09-12T12:30:12;95222.31;;;28.95;26.64
20003;BME280;10162;41.600;23.806;2023-09-12T12:32:46;95225.78;;;29.17;25.52
20003;BME280;10162;41.600;23.806;2023-09-12T12:35:19;95221.28;;;29.35;25.21
20003;BME280;10162;41.600;23.806;2023-09-12T12:37:45;95208.19;;;28.89;25.75
20003;BME280;10162;41.600;23.806;2023-09-12T12:40:15;95214.47;;;29.07;26.59
20003;BME280;10162;41.600;23.806;2023-09-12T12:42:41;95212.94;;;29.14;26.99
20003;BME280;10162;41.600;23.806;2023-09-12T12:45:14;95200.94;;;29.21;26.26
20003;BME280;10162;41.600;23.806;2023-09-12T12:47:42;95210.88;;;29.42;24.86
20003;BME280;10162;41.600;23.806;2023-09-12T12:50:17;95205.56;;;29.68;25.07
20003;BME280;10162;41.600;23.806;2023-09-12T12:52:47;95214.53;;;29.94;25.79
20003;BME280;10162;41.600;23.806;2023-09-12T12:55:14;95203.81;;;29.64;25.67
20003;BME280;10162;41.600;23.806;2023-09-12T12:57:42;95205.59;;;29.85;25.68
20003;BME280;10162;41.600;23.806;2023-09-12T13:00:10;95207.78;;;29.66;25.57
20003;BME280;10162;41.600;23.806;2023-09-12T13:02:38;95208.47;;;29.89;25.14
20003;BME280;10162;41.600;23.806;2023-09-12T13:05:06;95202.00;;;29.50;25.19
20003;BME280;10162;41.600;23.806;2023-09-12T13:07:34;95196.94;;;30.06;25.56
20003;BME280;10162;41.600;23.806;2023-09-12T13:10:01;95197.25;;;30.38;24.27
20003;BME280;10162;41.600;23.806;2023-09-12T13:12:30;95196.31;;;30.09;25.85
20003;BME280;10162;41.600;23.806;2023-09-12T13:14:56;95192.97;;;29.94;25.57
20003;BME280;10162;41.600;23.806;2023-09-12T13:17:22;95183.03;;;29.64;25.61
20003;BME280;10162;41.600;23.806;2023-09-12T13:19:47;95197.59;;;30.11;25.46
20003;BME280;10162;41.600;23.806;2023-09-12T13:22:14;95202.50;;;30.44;25.17
20003;BME280;10162;41.600;23.806;2023-09-12T13:24:40;95194.91;;;30.63;24.48
20003;BME280;10162;41.600;23.806;2023-09-12T13:27:06;95205.66;;;30.37;25.00
20003;BME280;10162;41.600;23.806;2023-09-12T13:29:33;95197.09;;;30.09;25.97
20003;BME280;10162;41.600;23.806;2023-09-12T13:31:59;95198.22;;;30.43;25.51
20003;BME280;10162;41.600;23.806;2023-09-12T13:34:25;95197.13;;;30.61;24.75
20003;BME280;10162;41.600;23.806;2023-09-12T13:36:51;95192.75;;;30.94;24.77
20003;BME280;10162;41.600;23.806;2023-09-12T13:39:16;95200.28;;;30.71;24.50
20003;BME280;10162;41.600;23.806;2023-09-12T13:41:43;95190.38;;;31.10;24.48
20003;BME280;10162;41.600;23.806;2023-09-12T13:44:10;95198.97;;;30.95;25.48
20003;BME280;10162;41.600;23.806;2023-09-12T13:46:36;95189.16;;;30.73;25.30
20003;BME280;10162;41.600;23.806;2023-09-12T13:49:02;95196.59;;;30.76;25.16
20003;BME280;10162;41.600;23.806;2023-09-12T13:51:29;95197.44;;;30.33;25.43
20003;BME280;10162;41.600;23.806;2023-09-12T13:53:55;95189.97;;;30.39;25.75
20003;BME280;10162;41.600;23.806;2023-09-12T13:56:22;95191.56;;;30.49;25.50
20003;BME280;10162;41.600;23.806;2023-09-12T13:58:48;95193.72;;;30.98;25.17
20003;BME280;10162;41.600;23.806;2023-09-12T14:01:16;95197.25;;;30.64;26.09